createdAt,value
2016-03-11T00:00:50.240Z,62.75
2016-03-11T00:01:50.273Z,62.65
2016-03-11T00:02:50.276Z,62.27
2016-03-11T00:03:50.357Z,62.56
2016-03-11T00:04:50.469Z,62.56
2016-03-11T00:05:50.504Z,62.65
2016-03-11T00:06:50.365Z,62.65
2016-03-11T00:07:50.461Z,62.65
2016-03-11T00:08:50.386Z,62.56
2016-03-11T00:09:50.405Z,62.65
2016-03-11T00:10:50.548Z,62.65
2016-03-11T00:11:50.442Z,62.65
2016-03-11T00:12:50.617Z,62.94
2016-03-11T00:13:50.525Z,62.94
2016-03-11T00:14:50.606Z,62.94
2016-03-11T00:15:50.687Z,62.94
2016-03-11T00:16:50.658Z,63.04
2016-03-11T00:17:50.786Z,62.75
2016-03-11T00:18:50.694Z,63.04
2016-03-11T00:19:50.572Z,62.94
2016-03-11T00:20:50.763Z,62.85
2016-03-11T00:21:50.688Z,62.75
2016-03-11T00:22:50.783Z,62.75
2016-03-11T00:23:50.740Z,62.75
2016-03-11T00:24:50.743Z,62.85
2016-03-11T00:25:50.745Z,62.56
2016-03-11T00:26:50.826Z,62.94
2016-03-11T00:27:50.876Z,62.65
2016-03-11T00:28:50.878Z,63.13
2016-03-11T00:29:50.896Z,62.75
2016-03-11T00:30:50.759Z,63.13
2016-03-11T00:31:50.792Z,62.94
2016-03-11T00:32:50.935Z,62.94
2016-03-11T00:33:50.907Z,62.56
2016-03-11T00:34:50.956Z,62.94
2016-03-11T00:35:50.835Z,62.85
2016-03-11T00:36:51.026Z,62.65
2016-03-11T00:37:51.012Z,62.65
2016-03-11T00:38:50.968Z,62.75
2016-03-11T00:39:51.033Z,62.85
2016-03-11T00:40:51.082Z,62.65
2016-03-11T00:41:51.070Z,62.65
2016-03-11T00:42:51.009Z,62.65
2016-03-11T00:43:51.090Z,62.65
2016-03-11T00:44:51.093Z,63.04
2016-03-11T00:45:51.002Z,63.04
2016-03-11T00:46:51.192Z,62.94
2016-03-11T00:47:51.086Z,62.65
2016-03-11T00:48:51.166Z,62.75
2016-03-11T00:49:51.091Z,62.27
2016-03-11T00:50:51.109Z,62.65
2016-03-11T00:51:51.112Z,62.56
2016-03-11T00:52:51.131Z,62.37
2016-03-11T00:53:51.275Z,62.56
2016-03-11T00:54:51.261Z,62.18
2016-03-11T00:55:51.248Z,62.65
2016-03-11T00:56:51.361Z,62.46
2016-03-11T00:57:51.222Z,62.75
2016-03-11T00:58:51.256Z,62.56
2016-03-11T00:59:51.259Z,62.85
2016-03-11T01:00:51.261Z,62.56
2016-03-11T01:01:51.296Z,62.65
2016-03-11T01:02:51.299Z,62.65
2016-03-11T01:03:51.458Z,62.75
2016-03-11T01:04:51.335Z,62.56
2016-03-11T01:05:51.354Z,62.46
2016-03-11T01:06:51.465Z,62.27
2016-03-11T01:07:51.546Z,62.18
2016-03-11T01:08:51.518Z,62.46
2016-03-11T01:09:51.254Z,62.56
2016-03-11T01:10:51.445Z,62.27
2016-03-11T01:11:51.448Z,62.56
2016-03-11T01:12:51.465Z,62.56
2016-03-11T01:13:51.500Z,62.37
2016-03-11T01:14:51.612Z,62.46
2016-03-11T01:15:51.552Z,62.65
2016-03-11T01:16:51.711Z,62.56
2016-03-11T01:17:51.729Z,62.65
2016-03-11T01:18:51.748Z,62.94
2016-03-11T01:19:51.751Z,62.46
2016-03-11T01:20:51.598Z,63.23
2016-03-11T01:21:51.772Z,62.94
2016-03-11T01:22:51.649Z,62.94
2016-03-11T01:23:51.823Z,63.13
2016-03-11T01:24:51.764Z,63.04
2016-03-11T01:25:51.845Z,62.75
2016-03-11T01:26:51.801Z,62.65
2016-03-11T01:27:51.835Z,62.94
2016-03-11T01:28:51.900Z,63.04
2016-03-11T01:29:51.919Z,62.85
2016-03-11T01:30:51.922Z,62.65
2016-03-11T01:31:51.924Z,62.65
2016-03-11T01:32:51.942Z,62.65
2016-03-11T01:33:51.992Z,62.65
2016-03-11T01:34:51.900Z,62.65
2016-03-11T01:35:51.856Z,62.46
2016-03-11T01:36:51.906Z,62.94
2016-03-11T01:37:52.049Z,62.56
2016-03-11T01:38:52.037Z,62.56
2016-03-11T01:39:52.071Z,63.04
2016-03-11T01:40:51.963Z,62.85
2016-03-11T01:41:51.966Z,62.94
2016-03-11T01:42:52.062Z,62.94
2016-03-11T01:43:55.019Z,63.23
2016-03-11T01:44:52.006Z,63.04
2016-03-11T01:45:52.055Z,63.04
2016-03-11T01:46:52.058Z,62.85
2016-03-11T01:47:52.060Z,63.13
2016-03-11T01:48:52.079Z,62.94
2016-03-11T01:49:52.097Z,63.04
2016-03-11T01:50:52.132Z,62.94
2016-03-11T01:51:52.134Z,63.13
2016-03-11T01:52:52.152Z,63.23
2016-03-11T01:53:52.154Z,62.94
2016-03-11T01:54:52.189Z,63.04
2016-03-11T01:55:52.206Z,62.94
2016-03-11T01:56:52.210Z,62.56
2016-03-11T01:57:52.228Z,62.94
2016-03-11T01:58:52.243Z,62.94
2016-03-11T01:59:52.250Z,63.13
2016-03-11T02:00:52.257Z,62.85
2016-03-11T02:01:52.281Z,62.94
2016-03-11T02:02:52.289Z,63.23
2016-03-11T02:03:52.283Z,62.65
2016-03-11T02:04:52.297Z,62.94
2016-03-11T02:05:52.156Z,62.94
2016-03-11T02:06:52.311Z,62.85
2016-03-11T02:07:52.326Z,62.85
2016-03-11T02:08:52.340Z,62.75
2016-03-11T02:09:52.357Z,63.04
2016-03-11T02:10:52.374Z,62.56
2016-03-11T02:11:52.391Z,62.94
2016-03-11T02:12:52.408Z,62.94
2016-03-11T02:13:52.424Z,62.94
2016-03-11T02:14:52.459Z,63.23
2016-03-11T02:15:52.445Z,62.85
2016-03-11T02:16:52.479Z,62.94
2016-03-11T02:17:52.480Z,63.13
2016-03-11T02:18:52.499Z,63.04
2016-03-11T02:19:52.517Z,63.32
2016-03-11T02:20:52.536Z,63.13
2016-03-11T02:21:52.554Z,63.04
2016-03-11T02:22:52.572Z,63.04
2016-03-11T02:23:52.591Z,62.94
2016-03-11T02:24:52.610Z,63.13
2016-03-11T02:25:52.612Z,62.94
2016-03-11T02:26:52.693Z,63.13
2016-03-11T02:27:52.663Z,63.13
2016-03-11T02:28:52.807Z,63.23
2016-03-11T02:29:52.716Z,62.85
2016-03-11T02:30:52.703Z,63.1
2016-03-11T02:31:52.721Z,63.51
2016-03-11T02:32:52.896Z,63.7
2016-03-11T02:33:52.946Z,63.42
2016-03-11T02:34:52.917Z,63.67
2016-03-11T02:35:52.795Z,63.48
2016-03-11T02:36:52.812Z,63.48
2016-03-11T02:37:52.816Z,63.6
2016-03-11T02:38:52.990Z,63.67
2016-03-11T02:39:53.040Z,63.7
2016-03-11T02:40:52.887Z,63.51
2016-03-11T02:41:52.905Z,63.51
2016-03-11T02:42:52.986Z,63.29
2016-03-11T02:43:52.926Z,63.29
2016-03-11T02:44:53.117Z,63.01
2016-03-11T02:45:52.978Z,63.29
2016-03-11T02:46:53.059Z,63.2
2016-03-11T02:47:53.124Z,63.1
2016-03-11T02:48:53.002Z,63.29
2016-03-11T02:49:53.177Z,63.39
2016-03-11T02:50:53.085Z,63.29
2016-03-11T02:51:53.072Z,63.76
2016-03-11T02:52:53.074Z,63.29
2016-03-11T02:53:53.108Z,63.76
2016-03-11T02:54:53.111Z,63.95
2016-03-11T02:55:53.146Z,63.01
2016-03-11T02:56:53.148Z,63.67
2016-03-11T02:57:53.166Z,63.76
2016-03-11T02:58:53.294Z,63.57
2016-03-11T02:59:53.203Z,63.2
2016-03-11T03:00:53.207Z,63.2
2016-03-11T03:01:53.287Z,63.57
2016-03-11T03:02:53.415Z,63.67
2016-03-11T03:03:53.260Z,63.67
2016-03-11T03:04:53.278Z,63.1
2016-03-11T03:05:53.297Z,63.39
2016-03-11T03:06:53.315Z,63.2
2016-03-11T03:07:53.334Z,63.67
2016-03-11T03:08:53.337Z,63.67
2016-03-11T03:09:53.370Z,63.39
2016-03-11T03:10:53.389Z,63.76
2016-03-11T03:11:53.392Z,63.57
2016-03-11T03:12:53.409Z,63.39
2016-03-11T03:13:53.428Z,63.39
2016-03-11T03:14:53.447Z,63.48
2016-03-11T03:15:53.464Z,63.57
2016-03-11T03:16:53.483Z,63.76
2016-03-11T03:17:53.501Z,63.48
2016-03-11T03:18:53.520Z,63.39
2016-03-11T03:19:53.539Z,63.57
2016-03-11T03:20:53.588Z,63.39
2016-03-11T03:21:53.575Z,63.57
2016-03-11T03:22:53.593Z,63.29
2016-03-11T03:23:53.721Z,63.39
2016-03-11T03:24:53.614Z,63.39
2016-03-11T03:25:53.617Z,63.29
2016-03-11T03:26:53.651Z,63.39
2016-03-11T03:27:53.654Z,63.39
2016-03-11T03:28:53.688Z,63.48
2016-03-11T03:29:53.690Z,63.29
2016-03-11T03:30:53.707Z,63.48
2016-03-11T03:31:53.758Z,63.48
2016-03-11T03:32:53.745Z,63.76
2016-03-11T03:33:53.763Z,63.57
2016-03-11T03:34:53.765Z,63.57
2016-03-11T03:35:53.801Z,63.39
2016-03-11T03:36:53.803Z,64.14
2016-03-11T03:37:53.837Z,63.67
2016-03-11T03:38:53.840Z,63.67
2016-03-11T03:39:53.873Z,64.05
2016-03-11T03:40:53.876Z,64.05
2016-03-11T03:41:53.926Z,63.67
2016-03-11T03:42:53.912Z,63.76
2016-03-11T03:43:54.040Z,63.67
2016-03-11T03:44:54.106Z,63.86
2016-03-11T03:45:53.998Z,63.86
2016-03-11T03:46:53.986Z,63.57
2016-03-11T03:47:54.019Z,63.76
2016-03-11T03:48:54.006Z,63.95
2016-03-11T03:49:54.025Z,63.95
2016-03-11T03:50:54.184Z,63.86
2016-03-11T03:51:54.061Z,63.95
2016-03-11T03:52:54.096Z,63.67
2016-03-11T03:53:54.113Z,63.67
2016-03-11T03:54:54.132Z,63.67
2016-03-11T03:55:54.119Z,64.24
2016-03-11T03:56:54.138Z,63.57
2016-03-11T03:57:54.155Z,63.57
2016-03-11T03:58:54.174Z,63.57
2016-03-11T03:59:54.193Z,63.95
2016-03-11T04:00:54.211Z,63.86
2016-03-11T04:01:54.230Z,64.05
2016-03-11T04:02:54.248Z,63.76
2016-03-11T04:03:54.265Z,63.95
2016-03-11T04:04:54.269Z,63.48
2016-03-11T04:05:54.302Z,63.95
2016-03-11T04:06:54.430Z,64.14
2016-03-11T04:07:54.323Z,64.05
2016-03-11T04:08:54.467Z,64.05
2016-03-11T04:09:54.470Z,63.76
2016-03-11T04:10:54.487Z,63.86
2016-03-11T04:11:54.553Z,63.67
2016-03-11T04:12:54.525Z,64.14
2016-03-11T04:13:54.605Z,64.14
2016-03-11T04:14:54.576Z,63.95
2016-03-11T04:15:54.548Z,63.48
2016-03-11T04:16:54.519Z,63.95
2016-03-11T04:17:54.570Z,64.05
2016-03-11T04:18:54.634Z,63.86
2016-03-11T04:19:54.653Z,63.86
2016-03-11T04:20:54.561Z,63.86
2016-03-11T04:21:54.720Z,63.76
2016-03-11T04:22:54.645Z,63.86
2016-03-11T04:23:54.633Z,63.76
2016-03-11T04:24:54.666Z,64.14
2016-03-11T04:25:54.638Z,63.67
2016-03-11T04:26:54.718Z,63.67
2016-03-11T04:27:54.830Z,63.86
2016-03-11T04:28:54.818Z,63.95
2016-03-11T04:29:54.758Z,64.05
2016-03-11T04:30:54.744Z,64.05
2016-03-11T04:31:54.857Z,63.67
2016-03-11T04:32:54.907Z,63.95
2016-03-11T04:33:54.785Z,64.05
2016-03-11T04:34:54.787Z,63.57
2016-03-11T04:35:54.837Z,63.67
2016-03-11T04:36:54.901Z,63.86
2016-03-11T04:37:54.967Z,63.67
2016-03-11T04:38:54.938Z,63.76
2016-03-11T04:39:54.940Z,63.76
2016-03-11T04:40:54.990Z,63.76
2016-03-11T04:41:54.883Z,63.86
2016-03-11T04:42:54.901Z,63.86
2016-03-11T04:43:54.920Z,63.86
2016-03-11T04:44:54.939Z,63.86
2016-03-11T04:45:54.785Z,63.86
2016-03-11T04:46:54.960Z,63.76
2016-03-11T04:47:54.978Z,63.95
2016-03-11T04:48:54.996Z,63.76
2016-03-11T04:49:55.015Z,63.95
2016-03-11T04:50:55.033Z,64.05
2016-03-11T04:51:55.050Z,63.95
2016-03-11T04:52:55.070Z,64.05
2016-03-11T04:53:55.088Z,63.95
2016-03-11T04:54:55.106Z,63.67
2016-03-11T04:55:55.125Z,63.95
2016-03-11T04:56:55.127Z,63.95
2016-03-11T04:57:55.161Z,63.95
2016-03-11T04:58:55.180Z,63.95
2016-03-11T04:59:55.197Z,64.05
2016-03-11T05:00:55.215Z,63.86
2016-03-11T05:01:55.219Z,63.95
2016-03-11T05:02:55.252Z,63.67
2016-03-11T05:03:55.271Z,63.67
2016-03-11T05:04:55.257Z,63.95
2016-03-11T05:05:55.308Z,63.67
2016-03-11T05:06:55.300Z,63.86
2016-03-11T05:07:55.319Z,63.95
2016-03-11T05:08:55.322Z,63.95
2016-03-11T05:09:55.355Z,63.76
2016-03-11T05:10:55.358Z,64.05
2016-03-11T05:11:55.392Z,63.95
2016-03-11T05:12:55.395Z,63.95
2016-03-11T05:13:55.412Z,63.86
2016-03-11T05:14:55.432Z,64.05
2016-03-11T05:15:55.449Z,63.95
2016-03-11T05:16:55.452Z,63.95
2016-03-11T05:17:55.471Z,63.67
2016-03-11T05:18:55.489Z,63.95
2016-03-11T05:19:55.507Z,63.95
2016-03-11T05:20:55.525Z,63.95
2016-03-11T05:21:55.544Z,63.67
2016-03-11T05:22:55.593Z,63.95
2016-03-11T05:23:55.596Z,63.95
2016-03-11T05:24:55.598Z,63.86
2016-03-11T05:25:55.601Z,63.95
2016-03-11T05:26:55.636Z,64.05
2016-03-11T05:27:55.639Z,63.95
2016-03-11T05:28:55.672Z,63.86
2016-03-11T05:29:55.659Z,63.48
2016-03-11T05:30:55.693Z,63.67
2016-03-11T05:31:55.712Z,63.76
2016-03-11T05:32:55.589Z,63.95
2016-03-11T05:33:55.733Z,63.95
2016-03-11T05:34:55.766Z,63.95
2016-03-11T05:35:55.769Z,63.86
2016-03-11T05:36:55.803Z,64.05
2016-03-11T05:37:55.805Z,63.95
2016-03-11T05:38:55.824Z,63.86
2016-03-11T05:39:55.842Z,63.95
2016-03-11T05:40:55.861Z,63.95
2016-03-11T05:41:55.879Z,63.57
2016-03-11T05:42:55.897Z,63.95
2016-03-11T05:43:55.900Z,64.05
2016-03-11T05:44:55.918Z,63.86
2016-03-11T05:45:55.952Z,63.95
2016-03-11T05:46:55.986Z,63.86
2016-03-11T05:47:56.005Z,63.95
2016-03-11T05:48:55.992Z,63.95
2016-03-11T05:49:55.995Z,64.05
2016-03-11T05:50:56.028Z,63.57
2016-03-11T05:51:56.031Z,64.14
2016-03-11T05:52:56.065Z,64.05
2016-03-11T05:53:56.067Z,64.05
2016-03-11T05:54:56.101Z,63.67
2016-03-11T05:55:56.103Z,63.95
2016-03-11T05:56:56.123Z,63.95
2016-03-11T05:57:56.141Z,63.67
2016-03-11T05:58:56.159Z,63.86
2016-03-11T05:59:56.177Z,63.86
2016-03-11T06:00:56.211Z,64.05
2016-03-11T06:01:56.230Z,63.76
2016-03-11T06:02:56.264Z,63.76
2016-03-11T06:03:56.250Z,63.67
2016-03-11T06:04:56.253Z,63.57
2016-03-11T06:05:56.272Z,64.24
2016-03-11T06:06:56.275Z,64.14
2016-03-11T06:07:56.293Z,64.14
2016-03-11T06:08:56.327Z,64.14
2016-03-11T06:09:56.329Z,63.76
2016-03-11T06:10:56.347Z,63.76
2016-03-11T06:11:56.366Z,63.95
2016-03-11T06:12:56.399Z,63.57
2016-03-11T06:13:56.403Z,63.86
2016-03-11T06:14:56.437Z,63.95
2016-03-11T06:15:56.424Z,64.05
2016-03-11T06:16:56.457Z,64.05
2016-03-11T06:17:56.351Z,63.57
2016-03-11T06:18:56.478Z,63.95
2016-03-11T06:19:56.496Z,64.05
2016-03-11T06:20:56.515Z,63.76
2016-03-11T06:21:56.549Z,63.86
2016-03-11T06:22:56.552Z,63.95
2016-03-11T06:23:56.570Z,63.95
2016-03-11T06:24:56.589Z,64.05
2016-03-11T06:25:56.591Z,63.76
2016-03-11T06:26:56.609Z,64.05
2016-03-11T06:27:56.628Z,63.86
2016-03-11T06:28:56.645Z,63.76
2016-03-11T06:29:56.664Z,63.95
2016-03-11T06:30:56.667Z,63.86
2016-03-11T06:31:56.701Z,63.86
2016-03-11T06:32:56.735Z,63.86
2016-03-11T06:33:56.722Z,64.05
2016-03-11T06:34:56.771Z,63.86
2016-03-11T06:35:56.758Z,63.76
2016-03-11T06:36:56.792Z,64.05
2016-03-11T06:37:56.795Z,63.86
2016-03-11T06:38:56.829Z,63.86
2016-03-11T06:39:56.832Z,64.05
2016-03-11T06:40:56.850Z,63.76
2016-03-11T06:41:56.852Z,63.86
2016-03-11T06:42:56.871Z,63.86
2016-03-11T06:43:56.889Z,63.67
2016-03-11T06:44:56.907Z,64.05
2016-03-11T06:45:56.926Z,63.95
2016-03-11T06:46:56.944Z,63.95
2016-03-11T06:47:56.993Z,63.57
2016-03-11T06:48:56.965Z,63.95
2016-03-11T06:49:56.998Z,63.86
2016-03-11T06:50:57.001Z,63.95
2016-03-11T06:51:57.036Z,63.67
2016-03-11T06:52:57.039Z,63.67
2016-03-11T06:53:57.057Z,63.67
2016-03-11T06:54:57.076Z,63.39
2016-03-11T06:55:57.093Z,63.57
2016-03-11T06:56:57.112Z,63.39
2016-03-11T06:57:57.115Z,63.76
2016-03-11T06:58:57.149Z,63.95
2016-03-11T06:59:57.151Z,63.39
2016-03-11T07:00:57.186Z,63.39
2016-03-11T07:01:57.188Z,63.48
2016-03-11T07:02:57.206Z,63.29
2016-03-11T07:03:57.224Z,63.76
2016-03-11T07:04:57.227Z,63.39
2016-03-11T07:05:57.370Z,63.39
2016-03-11T07:06:57.280Z,63.29
2016-03-11T07:07:57.282Z,63.57
2016-03-11T07:08:57.441Z,63.48
2016-03-11T07:09:57.319Z,63.79
2016-03-11T07:10:57.383Z,63.86
2016-03-11T07:11:57.355Z,63.2
2016-03-11T07:12:57.374Z,63.6
2016-03-11T07:13:57.564Z,63.1
2016-03-11T07:14:57.566Z,63.57
2016-03-11T07:15:57.429Z,63.67
2016-03-11T07:16:57.431Z,63.7
2016-03-11T07:17:57.497Z,63.86
2016-03-11T07:18:57.468Z,63.7
2016-03-11T07:19:57.487Z,63.23
2016-03-11T07:20:57.504Z,63.7
2016-03-11T07:21:57.523Z,63.51
2016-03-11T07:22:57.541Z,63.23
2016-03-11T07:23:57.544Z,63.1
2016-03-11T07:24:57.562Z,63.6
2016-03-11T07:25:57.596Z,63.51
2016-03-11T07:26:57.614Z,63.6
2016-03-11T07:27:57.633Z,63.6
2016-03-11T07:28:57.636Z,63.6
2016-03-11T07:29:57.654Z,63.51
2016-03-11T07:30:57.687Z,64.27
2016-03-11T07:31:57.690Z,64.08
2016-03-11T07:32:57.709Z,63.51
2016-03-11T07:33:57.711Z,64.08
2016-03-11T07:34:57.745Z,63.99
2016-03-11T07:35:57.747Z,63.7
2016-03-11T07:36:57.782Z,63.79
2016-03-11T07:37:57.785Z,64.46
2016-03-11T07:38:57.819Z,64.37
2016-03-11T07:39:57.821Z,64.08
2016-03-11T07:40:57.839Z,64.08
2016-03-11T07:41:57.841Z,63.99
2016-03-11T07:42:57.861Z,64.18
2016-03-11T07:43:57.910Z,64.18
2016-03-11T07:44:57.897Z,64.08
2016-03-11T07:45:57.916Z,64.08
2016-03-11T07:46:57.934Z,64.56
2016-03-11T07:47:57.952Z,64.18
2016-03-11T07:48:57.970Z,64.08
2016-03-11T07:49:58.005Z,64.08
2016-03-11T07:50:58.007Z,64.08
2016-03-11T07:51:58.026Z,64.37
2016-03-11T07:52:58.043Z,63.89
2016-03-11T07:53:58.046Z,64.08
2016-03-11T07:54:58.064Z,64.08
2016-03-11T07:55:58.098Z,64.18
2016-03-11T07:56:58.101Z,64.18
2016-03-11T07:57:58.135Z,63.89
2016-03-11T07:58:58.137Z,63.79
2016-03-11T07:59:58.156Z,63.7
2016-03-11T08:00:58.175Z,63.99
2016-03-11T08:01:58.192Z,63.99
2016-03-11T08:02:58.196Z,63.99
2016-03-11T08:03:58.214Z,63.6
2016-03-11T08:04:58.233Z,63.99
2016-03-11T08:05:58.250Z,63.79
2016-03-11T08:06:58.269Z,63.7
2016-03-11T08:07:58.287Z,64.08
2016-03-11T08:08:58.306Z,63.79
2016-03-11T08:09:58.636Z,64.27
2016-03-11T08:10:58.342Z,63.99
2016-03-11T08:11:58.361Z,63.6
2016-03-11T08:12:58.395Z,63.99
2016-03-11T08:13:58.397Z,63.99
2016-03-11T08:14:58.416Z,63.99
2016-03-11T08:15:58.434Z,63.79
2016-03-11T08:16:58.436Z,63.7
2016-03-11T08:17:58.471Z,63.6
2016-03-11T08:18:58.474Z,63.99
2016-03-11T08:19:58.507Z,63.42
2016-03-11T08:20:58.510Z,63.32
2016-03-11T08:21:58.529Z,63.51
2016-03-11T08:22:58.546Z,63.6
2016-03-11T08:23:58.549Z,63.42
2016-03-11T08:24:58.567Z,63.6
2016-03-11T08:25:58.601Z,63.6
2016-03-11T08:26:58.604Z,63.32
2016-03-11T08:27:58.637Z,63.6
2016-03-11T08:28:58.640Z,63.13
2016-03-11T08:29:58.659Z,63.13
2016-03-11T08:30:58.678Z,62.94
2016-03-11T08:31:58.695Z,63.6
2016-03-11T08:32:58.729Z,63.23
2016-03-11T08:33:58.717Z,63.32
2016-03-11T08:34:58.750Z,63.13
2016-03-11T08:35:58.753Z,63.35
2016-03-11T08:36:58.786Z,63.73
2016-03-11T08:37:58.822Z,63.73
2016-03-11T08:38:58.808Z,63.54
2016-03-11T08:39:58.842Z,63.17
2016-03-11T08:40:58.845Z,62.88
2016-03-11T08:41:58.863Z,63.26
2016-03-11T08:42:58.881Z,62.88
2016-03-11T08:43:58.899Z,62.88
2016-03-11T08:44:58.933Z,62.97
2016-03-11T08:45:58.936Z,63.07
2016-03-11T08:46:58.938Z,63.26
2016-03-11T08:47:58.957Z,63.26
2016-03-11T08:48:58.976Z,62.88
2016-03-11T08:49:59.010Z,63.17
2016-03-11T08:50:59.013Z,62.69
2016-03-11T08:51:59.046Z,62.97
2016-03-11T08:52:59.049Z,62.88
2016-03-11T08:53:59.067Z,63.07
2016-03-11T08:54:59.085Z,62.97
2016-03-11T08:55:59.120Z,63.17
2016-03-11T08:56:59.122Z,63.07
2016-03-11T08:57:59.140Z,62.88
2016-03-11T08:58:59.159Z,62.69
2016-03-11T08:59:59.177Z,62.88
2016-03-11T09:00:59.179Z,62.59
2016-03-11T09:01:59.213Z,62.88
2016-03-11T09:02:59.217Z,62.97
2016-03-11T09:03:59.234Z,62.97
2016-03-11T09:04:59.252Z,62.88
2016-03-11T09:05:59.286Z,62.97
2016-03-11T09:06:59.289Z,62.88
2016-03-11T09:07:59.308Z,63.07
2016-03-11T09:08:59.325Z,62.49
2016-03-11T09:09:59.344Z,62.97
2016-03-11T09:10:59.363Z,62.78
2016-03-11T09:11:59.381Z,62.88
2016-03-11T09:12:59.430Z,63.07
2016-03-11T09:13:59.402Z,63.07
2016-03-11T09:14:59.436Z,63.07
2016-03-11T09:15:59.439Z,63.07
2016-03-11T09:16:59.472Z,62.78
2016-03-11T09:17:59.475Z,62.59
2016-03-11T09:18:59.509Z,62.59
2016-03-11T09:19:59.512Z,62.59
2016-03-11T09:20:59.546Z,62.4
2016-03-11T09:21:59.564Z,62.78
2016-03-11T09:22:59.567Z,62.59
2016-03-11T09:23:59.601Z,62.59
2016-03-11T09:24:59.604Z,62.59
2016-03-11T09:25:59.621Z,62.69
2016-03-11T09:26:59.624Z,63.07
2016-03-11T09:27:59.659Z,62.97
2016-03-11T09:28:59.677Z,62.97
2016-03-11T09:29:59.695Z,63.07
2016-03-11T09:30:59.698Z,62.97
2016-03-11T09:31:59.732Z,62.97
2016-03-11T09:32:59.734Z,62.88
2016-03-11T09:33:59.767Z,63.07
2016-03-11T09:34:59.771Z,62.4
2016-03-11T09:35:59.805Z,62.59
2016-03-11T09:36:59.808Z,62.78
2016-03-11T09:37:59.826Z,63.07
2016-03-11T09:38:59.861Z,62.69
2016-03-11T09:39:59.863Z,62.69
2016-03-11T09:40:59.897Z,62.88
2016-03-11T09:41:59.899Z,62.69
2016-03-11T09:42:59.917Z,63.07
2016-03-11T09:43:59.936Z,63.17
2016-03-11T09:44:59.954Z,62.88
2016-03-11T09:45:59.972Z,62.88
2016-03-11T09:46:59.975Z,63.07
2016-03-11T09:47:59.993Z,62.69
2016-03-11T09:49:00.012Z,62.88
2016-03-11T09:50:00.045Z,62.78
2016-03-11T09:51:00.064Z,62.4
2016-03-11T09:52:00.067Z,62.88
2016-03-11T09:53:00.085Z,62.78
2016-03-11T09:54:00.104Z,62.59
2016-03-11T09:55:00.122Z,62.78
2016-03-11T09:55:59.984Z,62.69
2016-03-11T09:57:00.158Z,62.69
2016-03-11T09:58:00.177Z,62.59
2016-03-11T09:59:00.195Z,62.69
2016-03-11T10:00:00.213Z,62.78
2016-03-11T10:01:00.231Z,62.78
2016-03-11T10:02:00.234Z,62.78
2016-03-11T10:03:00.284Z,62.59
2016-03-11T10:04:00.270Z,62.78
2016-03-11T10:05:00.305Z,62.78
2016-03-11T10:06:00.308Z,62.97
2016-03-11T10:07:00.332Z,63.17
2016-03-11T10:08:00.350Z,62.91
2016-03-11T10:09:00.368Z,62.69
2016-03-11T10:10:00.434Z,63.01
2016-03-11T10:11:00.405Z,63.07
2016-03-11T10:12:00.423Z,62.72
2016-03-11T10:13:00.425Z,62.4
2016-03-11T10:14:00.460Z,62.49
2016-03-11T10:15:00.478Z,62.78
2016-03-11T10:16:00.480Z,62.69
2016-03-11T10:17:00.500Z,62.21
2016-03-11T10:18:00.534Z,62.59
2016-03-11T10:19:00.536Z,62.49
2016-03-11T10:20:00.554Z,62.59
2016-03-11T10:21:00.573Z,62.59
2016-03-11T10:22:00.591Z,62.49
2016-03-11T10:23:00.608Z,62.49
2016-03-11T10:24:00.627Z,62.69
2016-03-11T10:25:00.646Z,62.78
2016-03-11T10:26:00.664Z,62.12
2016-03-11T10:27:00.682Z,62.59
2016-03-11T10:28:00.716Z,62.59
2016-03-11T10:29:00.718Z,62.88
2016-03-11T10:30:00.737Z,62.59
2016-03-11T10:31:00.755Z,62.12
2016-03-11T10:32:00.773Z,62.21
2016-03-11T10:33:00.793Z,62.59
2016-03-11T10:34:00.826Z,62.49
2016-03-11T10:35:00.813Z,61.93
2016-03-11T10:36:00.847Z,62.21
2016-03-11T10:37:00.850Z,62.4
2016-03-11T10:38:00.868Z,62.4
2016-03-11T10:39:00.886Z,62.3
2016-03-11T10:40:00.905Z,62.21
2016-03-11T10:41:00.923Z,62.02
2016-03-11T10:42:00.941Z,62.69
2016-03-11T10:43:00.959Z,61.93
2016-03-11T10:44:00.978Z,62.3
2016-03-11T10:45:01.012Z,62.4
2016-03-11T10:46:01.014Z,62.62
2016-03-11T10:47:01.049Z,62.21
2016-03-11T10:48:01.051Z,62.21
2016-03-11T10:49:01.069Z,62.72
2016-03-11T10:50:01.291Z,62.21
2016-03-11T10:51:01.122Z,62.15
2016-03-11T10:52:01.125Z,62.72
2016-03-11T10:53:01.143Z,62.72
2016-03-11T10:54:01.161Z,62.62
2016-03-11T10:55:01.180Z,62.62
2016-03-11T10:56:01.182Z,62.53
2016-03-11T10:57:01.216Z,62.43
2016-03-11T10:58:01.218Z,62.34
2016-03-11T10:59:01.269Z,62.62
2016-03-11T11:00:01.255Z,62.62
2016-03-11T11:01:01.274Z,62.05
2016-03-11T11:02:01.307Z,61.67
2016-03-11T11:03:01.310Z,61.86
2016-03-11T11:04:01.329Z,61.77
2016-03-11T11:05:01.339Z,62.15
2016-03-11T11:06:01.359Z,61.77
2016-03-11T11:07:01.347Z,61.96
2016-03-11T11:08:01.350Z,61.96
2016-03-11T11:09:01.369Z,61.67
2016-03-11T11:10:01.362Z,61.96
2016-03-11T11:11:01.374Z,61.96
2016-03-11T11:12:01.387Z,62.05
2016-03-11T11:13:01.400Z,61.96
2016-03-11T11:14:01.413Z,61.86
2016-03-11T11:15:01.428Z,61.86
2016-03-11T11:16:01.444Z,61.86
2016-03-11T11:17:01.460Z,61.48
2016-03-11T11:18:01.477Z,61.86
2016-03-11T11:19:01.493Z,61.77
2016-03-11T11:20:01.494Z,61.86
2016-03-11T11:21:01.512Z,61.96
2016-03-11T11:22:01.545Z,61.77
2016-03-11T11:23:01.547Z,61.67
2016-03-11T11:24:01.862Z,61.38
2016-03-11T11:25:01.598Z,61.77
2016-03-11T11:26:01.601Z,61.77
2016-03-11T11:27:01.618Z,61.96
2016-03-11T11:28:01.635Z,61.77
2016-03-11T11:29:01.654Z,62.05
2016-03-11T11:30:01.718Z,61.77
2016-03-11T11:31:01.691Z,61.77
2016-03-11T11:32:01.709Z,62.05
2016-03-11T11:33:01.726Z,61.93
2016-03-11T11:34:01.746Z,62.05
2016-03-11T11:35:01.764Z,61.48
2016-03-11T11:36:01.781Z,61.48
2016-03-11T11:37:01.801Z,62.05
2016-03-11T11:38:01.818Z,61.86
2016-03-11T11:39:01.837Z,61.67
2016-03-11T11:40:01.855Z,61.86
2016-03-11T11:41:01.858Z,61.96
2016-03-11T11:42:01.908Z,61.86
2016-03-11T11:43:01.910Z,61.86
2016-03-11T11:44:01.928Z,61.74
2016-03-11T11:45:01.931Z,61.77
2016-03-11T11:46:01.964Z,61.86
2016-03-11T11:47:01.983Z,61.86
2016-03-11T11:48:01.986Z,61.96
2016-03-11T11:49:02.019Z,62.72
2016-03-11T11:50:02.022Z,62.05
2016-03-11T11:51:02.041Z,62.72
2016-03-11T11:52:02.122Z,62.43
2016-03-11T11:53:02.077Z,62.43
2016-03-11T11:54:02.111Z,62.34
2016-03-11T11:55:02.114Z,62.53
2016-03-11T11:56:02.133Z,62.43
2016-03-11T11:57:02.166Z,62.62
2016-03-11T11:58:02.185Z,62.62
2016-03-11T11:59:02.204Z,61.96
2016-03-11T12:00:02.206Z,61.96
2016-03-11T12:01:02.224Z,61.58
2016-03-11T12:02:02.243Z,61.96
2016-03-11T12:03:02.261Z,61.74
2016-03-11T12:04:02.279Z,61.58
2016-03-11T12:05:02.298Z,61.48
2016-03-11T12:06:02.315Z,61.38
2016-03-11T12:07:02.334Z,61.67
2016-03-11T12:08:02.353Z,61.48
2016-03-11T12:09:02.355Z,61.45
2016-03-11T12:10:02.404Z,61.86
2016-03-11T12:11:02.407Z,62.12
2016-03-11T12:12:02.425Z,61.93
2016-03-11T12:13:01.695Z,62.59
2016-03-11T12:14:02.462Z,62.72
2016-03-11T12:15:02.481Z,62.53
2016-03-11T12:16:02.483Z,62.53
2016-03-11T12:17:02.517Z,62.43
2016-03-11T12:18:02.520Z,62.53
2016-03-11T12:19:02.538Z,62.43
2016-03-11T12:20:02.572Z,62.72
2016-03-11T12:21:02.575Z,61.96
2016-03-11T12:22:02.594Z,61.58
2016-03-11T12:23:02.611Z,61.77
2016-03-11T12:24:02.630Z,61.77
2016-03-11T12:25:02.664Z,61.86
2016-03-11T12:26:02.666Z,61.58
2016-03-11T12:27:02.685Z,61.58
2016-03-11T12:28:02.702Z,61.86
2016-03-11T12:29:02.721Z,61.48
2016-03-11T12:30:02.740Z,61.86
2016-03-11T12:31:02.758Z,62.15
2016-03-11T12:32:02.776Z,62.24
2016-03-11T12:33:02.795Z,62.53
2016-03-11T12:34:02.813Z,62.43
2016-03-11T12:35:02.832Z,62.15
2016-03-11T12:36:02.834Z,61.58
2016-03-11T12:37:02.884Z,61.96
2016-03-11T12:38:02.870Z,61.86
2016-03-11T12:39:02.889Z,62.05
2016-03-11T12:40:02.923Z,61.96
2016-03-11T12:41:02.925Z,62.05
2016-03-11T12:42:02.959Z,61.86
2016-03-11T12:43:02.977Z,61.86
2016-03-11T12:44:02.981Z,61.58
2016-03-11T12:45:03.014Z,61.86
2016-03-11T12:46:03.017Z,61.48
2016-03-11T12:47:03.036Z,61.67
2016-03-11T12:48:03.116Z,61.77
2016-03-11T12:49:02.931Z,61.86
2016-03-11T12:50:03.091Z,62.05
2016-03-11T12:51:03.125Z,61.86
2016-03-11T12:52:03.127Z,61.48
2016-03-11T12:53:03.145Z,61.67
2016-03-11T12:54:03.180Z,61.58
2016-03-11T12:55:03.182Z,61.67